createdAt,value
2023-09-08T00:02:14.073Z,94637.56
2023-09-08T00:04:40.965Z,94642.81
2023-09-08T00:07:07.787Z,94632.94
2023-09-08T00:09:34.527Z,94629.09
2023-09-08T00:12:04.229Z,94631.66
2023-09-08T00:14:32.199Z,94633.66
2023-09-08T00:16:59.459Z,94635.84
2023-09-08T00:19:26.575Z,94629.66
2023-09-08T00:21:53.350Z,94638.94
2023-09-08T00:24:20.497Z,94633.94
2023-09-08T00:26:47.366Z,94636.50
2023-09-08T00:29:14.110Z,94636.38
2023-09-08T00:31:41.031Z,94634.25
2023-09-08T00:34:09.204Z,94642.97
2023-09-08T00:36:36.035Z,94644.25
2023-09-08T00:39:02.752Z,94638.63
2023-09-08T00:41:29.841Z,94642.47
2023-09-08T00:43:57.910Z,94639.53
2023-09-08T00:46:24.723Z,94651.72
2023-09-08T00:48:52.334Z,94642.63
2023-09-08T00:51:19.046Z,94641.72
2023-09-08T00:53:45.861Z,94642.06
2023-09-08T00:56:12.700Z,94644.47
2023-09-08T00:58:40.265Z,94646.59
2023-09-08T01:01:08.225Z,94642.78
2023-09-08T01:03:35.067Z,94643.53
2023-09-08T01:06:01.940Z,94646.47
2023-09-08T01:08:29.951Z,94644.44
2023-09-08T01:11:05.296Z,94639.34
2023-09-08T01:13:32.426Z,94637.97
2023-09-08T01:15:59.359Z,94640.59
2023-09-08T01:18:26.384Z,94640.34
2023-09-08T01:21:24.206Z,94639.91
2023-09-08T01:23:59.866Z,94642.41
2023-09-08T01:26:28.226Z,94631.56
2023-09-08T01:28:55.006Z,94640.94
2023-09-08T01:31:22.979Z,94640.94
2023-09-08T01:33:49.950Z,94643.91
2023-09-08T01:36:17.014Z,94640.34
2023-09-08T01:38:43.759Z,94635.69
2023-09-08T01:41:11.980Z,94639.06
2023-09-08T01:43:38.696Z,94634.66
2023-09-08T01:46:05.472Z,94639.50
2023-09-08T01:48:32.989Z,94641.78
2023-09-08T01:51:00.087Z,94642.91
2023-09-08T01:53:26.871Z,94633.16
2023-09-08T01:55:53.668Z,94626.97
2023-09-08T01:58:20.468Z,94632.50
2023-09-08T02:00:56.461Z,94628.34
2023-09-08T02:03:23.319Z,94631.22
2023-09-08T02:05:50.034Z,94623.69
2023-09-08T02:08:16.776Z,94628.91
2023-09-08T02:10:43.566Z,94627.13
2023-09-08T02:13:10.410Z,94622.22
2023-09-08T02:15:37.647Z,94623.75
2023-09-08T02:18:04.823Z,94624.78
2023-09-08T02:20:31.605Z,94619.66
2023-09-08T02:22:58.697Z,94623.59
2023-09-08T02:25:25.631Z,94632.13
2023-09-08T02:27:52.912Z,94635.25
2023-09-08T02:30:20.116Z,94633.16
2023-09-08T02:32:47.009Z,94629.31
2023-09-08T02:35:14.347Z,94634.72
2023-09-08T02:38:18.363Z,94636.97
2023-09-08T02:40:45.541Z,94646.75
2023-09-08T02:43:12.430Z,94647.88
2023-09-08T02:45:39.246Z,94647.66
2023-09-08T02:48:06.437Z,94645.91
2023-09-08T02:50:33.359Z,94651.56
2023-09-08T02:53:00.128Z,94644.72
2023-09-08T02:55:26.907Z,94647.91
2023-09-08T02:57:54.252Z,94652.34
2023-09-08T03:00:21.569Z,94651.34
2023-09-08T03:02:48.576Z,94650.34
2023-09-08T03:05:15.885Z,94650.75
2023-09-08T03:07:43.164Z,94648.69
2023-09-08T03:10:10.281Z,94647.66
2023-09-08T03:12:40.236Z,94648.13
2023-09-08T03:15:07.539Z,94644.81
2023-09-08T03:17:34.259Z,94651.41
2023-09-08T03:20:01.166Z,94647.09
2023-09-08T03:22:28.001Z,94641.94
2023-09-08T03:24:56.475Z,94652.53
2023-09-08T03:27:23.266Z,94646.50
2023-09-08T03:29:50.155Z,94646.78
2023-09-08T03:32:17.349Z,94649.38
2023-09-08T03:34:45.178Z,94646.25
2023-09-08T03:37:12.132Z,94646.78
2023-09-08T03:39:43.869Z,94646.09
2023-09-08T03:42:10.681Z,94643.00
2023-09-08T03:44:37.481Z,94646.13
2023-09-08T03:47:04.523Z,94648.16
2023-09-08T03:49:34.840Z,94647.56
2023-09-08T03:52:01.687Z,94649.03
2023-09-08T03:54:34.553Z,94648.22
2023-09-08T03:57:01.385Z,94648.22
2023-09-08T03:59:28.507Z,94649.81
2023-09-08T04:01:55.471Z,94646.78
2023-09-08T04:04:22.333Z,94651.72
2023-09-08T04:06:49.551Z,94647.09
2023-09-08T04:09:16.336Z,94645.31
2023-09-08T04:11:43.680Z,94645.56
2023-09-08T04:14:30.536Z,94648.13
2023-09-08T04:17:18.965Z,94651.97
2023-09-08T04:19:45.914Z,94641.16
2023-09-08T04:22:12.690Z,94650.00
2023-09-08T04:24:39.503Z,94651.09
2023-09-08T04:27:07.747Z,94660.91
2023-09-08T04:29:35.028Z,94653.69
2023-09-08T04:32:01.781Z,94657.25
2023-09-08T04:34:29.049Z,94659.56
2023-09-08T04:36:57.231Z,94656.47
2023-09-08T04:39:24.261Z,94657.53
2023-09-08T04:41:51.022Z,94660.91
2023-09-08T04:44:21.088Z,94662.47
2023-09-08T04:46:48.707Z,94660.91
2023-09-08T04:49:15.931Z,94659.66
2023-09-08T04:51:42.917Z,94670.19
2023-09-08T04:54:09.701Z,94664.25
2023-09-08T04:56:36.911Z,94668.44
2023-09-08T04:59:03.739Z,94673.13
2023-09-08T05:01:30.628Z,94675.72
2023-09-08T05:03:57.694Z,94670.81
2023-09-08T05:06:24.587Z,94679.06
2023-09-08T05:08:51.430Z,94673.84
2023-09-08T05:11:18.186Z,94669.41
2023-09-08T05:13:45.423Z,94670.19
2023-09-08T05:16:12.675Z,94670.44
2023-09-08T05:18:40.046Z,94679.50
2023-09-08T05:21:07.432Z,94676.41
2023-09-08T05:23:34.672Z,94677.19
2023-09-08T05:26:01.472Z,94684.16
2023-09-08T05:28:28.243Z,94678.72
2023-09-08T05:30:55.323Z,94680.03
2023-09-08T05:33:22.396Z,94687.25
2023-09-08T05:35:49.159Z,94691.59
2023-09-08T05:38:15.897Z,94694.16
2023-09-08T05:40:43.038Z,94689.44
2023-09-08T05:43:09.862Z,94682.41
2023-09-08T05:45:36.987Z,94691.19
2023-09-08T05:48:03.979Z,94691.69
2023-09-08T05:50:30.938Z,94697.00
2023-09-08T05:52:57.778Z,94694.66
2023-09-08T05:55:24.516Z,94706.25
2023-09-08T05:58:04.237Z,94696.59
2023-09-08T06:00:30.992Z,94699.88
2023-09-08T06:02:57.940Z,94704.50
2023-09-08T06:05:24.904Z,94704.38
2023-09-08T06:08:04.467Z,94707.44
2023-09-08T06:10:33.065Z,94703.44
2023-09-08T06:13:00.038Z,94695.00
2023-09-08T06:15:27.193Z,94702.09
2023-09-08T06:17:54.025Z,94703.63
2023-09-08T06:20:21.398Z,94709.94
2023-09-08T06:22:48.198Z,94703.31
2023-09-08T06:25:15.048Z,94706.56
2023-09-08T06:27:42.179Z,94712.41
2023-09-08T06:30:09.367Z,94719.69
2023-09-08T06:32:36.182Z,94708.84
2023-09-08T06:35:03.608Z,94711.47
2023-09-08T06:37:34.593Z,94720.34
2023-09-08T06:40:01.327Z,94713.19
2023-09-08T06:42:28.077Z,94714.59
2023-09-08T06:44:54.832Z,94717.78
2023-09-08T06:47:21.627Z,94715.88
2023-09-08T06:49:48.484Z,94713.75
2023-09-08T06:52:15.741Z,94717.31
2023-09-08T06:54:42.493Z,94720.84
2023-09-08T06:57:09.238Z,94719.47
2023-09-08T06:59:36.027Z,94724.13
2023-09-08T07:02:02.989Z,94728.31
2023-09-08T07:04:31.642Z,94728.31
2023-09-08T07:06:58.714Z,94715.66
2023-09-08T07:09:25.558Z,94718.31
2023-09-08T07:11:52.289Z,94722.84
2023-09-08T07:14:19.027Z,94718.41
2023-09-08T07:16:45.826Z,94718.59
2023-09-08T07:19:13.238Z,94719.69
2023-09-08T07:21:40.729Z,94728.28
2023-09-08T07:24:07.916Z,94728.84
2023-09-08T07:26:34.639Z,94720.31
2023-09-08T07:29:01.374Z,94719.81
2023-09-08T07:31:28.136Z,94721.03
2023-09-08T07:33:54.984Z,94728.94
2023-09-08T07:36:21.754Z,94722.41
2023-09-08T07:38:48.634Z,94725.41
2023-09-08T07:41:15.579Z,94721.44
2023-09-08T07:43:42.563Z,94724.03
2023-09-08T07:46:09.565Z,94722.19
2023-09-08T07:48:37.111Z,94721.06
2023-09-08T07:51:04.047Z,94725.44
2023-09-08T07:53:30.908Z,94720.97
2023-09-08T07:55:59.959Z,94731.06
2023-09-08T07:58:27.159Z,94733.13
2023-09-08T08:00:53.876Z,94733.50
2023-09-08T08:03:20.677Z,94725.16
2023-09-08T08:05:47.450Z,94730.63
2023-09-08T08:08:14.288Z,94723.78
2023-09-08T08:10:42.391Z,94732.47
2023-09-08T08:13:09.107Z,94722.69
2023-09-08T08:15:41.174Z,94729.13
2023-09-08T08:18:08.112Z,94728.19
2023-09-08T08:20:35.072Z,94730.22
2023-09-08T08:23:02.846Z,94729.00
2023-09-08T08:25:29.631Z,94730.22
2023-09-08T08:27:56.822Z,94730.78
2023-09-08T08:30:23.767Z,94740.22
2023-09-08T08:32:51.775Z,94734.81
2023-09-08T08:35:18.685Z,94741.78
2023-09-08T08:37:45.718Z,94731.66
2023-09-08T08:40:13.274Z,94732.88
2023-09-08T08:42:40.608Z,94738.00
2023-09-08T08:45:08.683Z,94724.66
2023-09-08T08:47:36.565Z,94725.81
2023-09-08T08:50:03.399Z,94731.00
2023-09-08T08:52:30.854Z,94728.50
2023-09-08T08:54:58.216Z,94729.63
2023-09-08T08:57:25.110Z,94725.84
2023-09-08T08:59:52.322Z,94718.34
2023-09-08T09:02:19.527Z,94705.88
2023-09-08T09:04:46.573Z,94704.19
2023-09-08T09:07:13.373Z,94712.78
2023-09-08T09:09:40.449Z,94709.53
2023-09-08T09:12:07.663Z,94712.59
2023-09-08T09:14:35.072Z,94709.16
2023-09-08T09:17:02.293Z,94704.75
2023-09-08T09:19:32.188Z,94706.28
2023-09-08T09:21:59.344Z,94707.84
2023-09-08T09:24:40.135Z,94703.03
2023-09-08T09:27:07.034Z,94719.69
2023-09-08T09:29:35.566Z,94709.34
2023-09-08T09:32:07.329Z,94711.81
2023-09-08T09:34:34.163Z,94707.81
2023-09-08T09:37:01.785Z,94702.28
2023-09-08T09:39:28.620Z,94702.06
2023-09-08T09:41:56.281Z,94704.72
2023-09-08T09:44:24.661Z,94703.38
2023-09-08T09:46:53.186Z,94707.56
2023-09-08T09:49:20.373Z,94705.31
2023-09-08T09:51:51.131Z,94699.22
2023-09-08T09:54:18.430Z,94703.47
2023-09-08T09:56:46.963Z,94691.97
2023-09-08T09:59:14.359Z,94691.81
2023-09-08T10:01:41.839Z,94689.63
2023-09-08T10:04:08.637Z,94691.63
2023-09-08T10:06:38.757Z,94689.91
2023-09-08T10:09:06.686Z,94688.75
2023-09-08T10:11:51.227Z,94683.53
2023-09-08T10:14:19.241Z,94684.56
2023-09-08T10:16:47.104Z,94687.88
2023-09-08T10:19:13.933Z,94677.75
2023-09-08T10:21:42.030Z,94680.69
2023-09-08T10:24:27.409Z,94681.97
2023-09-08T10:27:01.860Z,94682.59
2023-09-08T10:29:28.684Z,94677.56
2023-09-08T10:31:57.179Z,94685.56
2023-09-08T10:34:25.602Z,94674.22
2023-09-08T10:36:53.324Z,94679.09
2023-09-08T10:39:49.094Z,94676.63
2023-09-08T10:42:22.483Z,94675.97
2023-09-08T10:44:59.154Z,94670.63
2023-09-08T10:47:26.672Z,94668.69
2023-09-08T10:49:53.874Z,94666.91
2023-09-08T10:52:23.514Z,94661.66
2023-09-08T10:54:55.131Z,94657.63
2023-09-08T10:57:22.811Z,94660.84
2023-09-08T10:59:57.658Z,94663.00
2023-09-08T11:02:40.230Z,94657.25
2023-09-08T11:05:11.732Z,94651.91
2023-09-08T11:07:39.885Z,94651.16
2023-09-08T11:10:08.771Z,94650.88
2023-09-08T11:12:35.559Z,94651.13
2023-09-08T11:15:06.427Z,94649.59
2023-09-08T11:17:33.567Z,94652.94
2023-09-08T11:20:00.405Z,94650.31
2023-09-08T11:22:27.211Z,94650.84
2023-09-08T11:24:57.269Z,94655.84
2023-09-08T11:27:24.140Z,94658.94
2023-09-08T11:29:51.100Z,94645.72
2023-09-08T11:32:19.414Z,94650.13
2023-09-08T11:34:46.325Z,94647.97
2023-09-08T11:37:14.184Z,94652.09
2023-09-08T11:39:41.514Z,94651.94
2023-09-08T11:42:09.655Z,94651.28
2023-09-08T11:44:36.701Z,94649.91
2023-09-08T11:47:04.393Z,94650.03
2023-09-08T11:49:41.030Z,94645.31
2023-09-08T11:52:08.008Z,94642.16
2023-09-08T11:54:36.472Z,94639.59
2023-09-08T11:57:07.162Z,94631.75
2023-09-08T11:59:36.915Z,94636.44
2023-09-08T12:02:04.210Z,94639.09
2023-09-08T12:04:30.990Z,94630.25
2023-09-08T12:06:58.135Z,94636.94
2023-09-08T12:09:25.892Z,94629.72
2023-09-08T12:11:52.705Z,94629.78
2023-09-08T12:14:19.563Z,94627.53
2023-09-08T12:16:46.362Z,94623.63
2023-09-08T12:19:35.426Z,94620.16
2023-09-08T12:22:02.810Z,94636.22
2023-09-08T12:24:49.329Z,94618.84
2023-09-08T12:27:17.110Z,94619.50
2023-09-08T12:29:59.577Z,94611.97
2023-09-08T12:32:26.989Z,94612.97
2023-09-08T12:34:53.791Z,94610.44
2023-09-08T12:37:24.606Z,94604.13
2023-09-08T12:39:51.990Z,94601.09
2023-09-08T12:42:27.429Z,94602.13
2023-09-08T12:44:54.772Z,94607.19
2023-09-08T12:47:21.539Z,94598.81
2023-09-08T12:49:48.443Z,94602.56
2023-09-08T12:52:16.388Z,94592.34
2023-09-08T12:54:43.142Z,94589.91
2023-09-08T12:57:09.939Z,94593.94
2023-09-08T12:59:36.790Z,94585.84
2023-09-08T13:02:04.349Z,94584.91
2023-09-08T13:04:31.101Z,94571.34
2023-09-08T13:06:57.944Z,94570.59
2023-09-08T13:09:24.897Z,94573.19
2023-09-08T13:11:51.779Z,94567.78
2023-09-08T13:14:21.556Z,94570.16
2023-09-08T13:16:48.350Z,94569.19
2023-09-08T13:19:15.933Z,94566.22
2023-09-08T13:21:42.762Z,94559.72
2023-09-08T13:24:10.867Z,94560.66
2023-09-08T13:26:41.412Z,94556.91
2023-09-08T13:29:08.976Z,94555.41
2023-09-08T13:31:35.824Z,94553.44
2023-09-08T13:34:02.565Z,94552.59
2023-09-08T13:36:29.331Z,94555.47
2023-09-08T13:38:56.072Z,94551.50
2023-09-08T13:41:24.031Z,94542.34
2023-09-08T13:43:53.763Z,94541.38
2023-09-08T13:46:20.559Z,94542.22
2023-09-08T13:48:49.028Z,94535.91
2023-09-08T13:51:18.085Z,94536.97
2023-09-08T13:53:47.838Z,94531.38
2023-09-08T13:56:15.841Z,94534.31
2023-09-08T13:58:49.698Z,94540.47
2023-09-08T14:01:19.621Z,94522.34
2023-09-08T14:06:21.500Z,94525.41
2023-09-08T14:11:34.864Z,94523.44
2023-09-08T14:14:09.938Z,94528.41
2023-09-08T14:16:36.855Z,94522.75
2023-09-08T14:19:03.630Z,94526.44
2023-09-08T14:21:30.847Z,94520.13
2023-09-08T14:23:57.778Z,94517.81
2023-09-08T14:26:24.653Z,94508.72
2023-09-08T14:28:51.944Z,94517.88
2023-09-08T14:31:18.712Z,94518.03
2023-09-08T14:33:45.820Z,94520.97
2023-09-08T14:36:17.151Z,94511.59
2023-09-08T14:38:46.837Z,94503.13
2023-09-08T14:41:13.700Z,94500.81
2023-09-08T14:43:41.254Z,94511.34
2023-09-08T14:46:08.177Z,94504.72
2023-09-08T14:48:34.917Z,94507.28
2023-09-08T14:51:02.187Z,94505.50
2023-09-08T14:53:31.205Z,94508.41
2023-09-08T14:55:59.131Z,94505.47
2023-09-08T14:58:25.930Z,94505.81
2023-09-08T15:00:53.211Z,94499.56
2023-09-08T15:03:20.622Z,94505.09
2023-09-08T15:05:47.422Z,94502.69
2023-09-08T15:08:14.204Z,94508.75
2023-09-08T15:10:41.064Z,94501.34
2023-09-08T15:13:07.892Z,94495.38
2023-09-08T15:15:35.065Z,94489.09
2023-09-08T15:18:01.881Z,94492.19
2023-09-08T15:20:29.029Z,94497.75
2023-09-08T15:22:56.212Z,94489.91
2023-09-08T15:25:23.050Z,94489.16
2023-09-08T15:27:50.177Z,94492.06
2023-09-08T15:30:17.224Z,94492.19
2023-09-08T15:32:44.050Z,94487.25
2023-09-08T15:35:11.192Z,94490.28
2023-09-08T15:37:38.005Z,94477.56
2023-09-08T15:40:05.660Z,94479.56
2023-09-08T15:42:32.451Z,94484.78
2023-09-08T15:44:59.460Z,94473.63
2023-09-08T15:47:26.620Z,94479.25
2023-09-08T15:49:53.599Z,94470.91
2023-09-08T15:52:21.349Z,94470.28
2023-09-08T15:54:49.151Z,94472.03
2023-09-08T15:57:16.266Z,94468.34
2023-09-08T15:59:43.502Z,94466.84
2023-09-08T16:02:11.398Z,94473.00
2023-09-08T16:04:40.484Z,94471.47
2023-09-08T16:07:07.412Z,94465.94
2023-09-08T16:09:34.613Z,94458.91
2023-09-08T16:12:01.364Z,94460.19
2023-09-08T16:14:28.635Z,94461.66
2023-09-08T16:16:55.449Z,94457.97
2023-09-08T16:19:22.559Z,94461.59
2023-09-08T16:21:49.758Z,94462.25
2023-09-08T16:24:17.939Z,94461.13
2023-09-08T16:26:45.287Z,94459.63
2023-09-08T16:29:13.408Z,94456.31
2023-09-08T16:31:40.147Z,94463.28
2023-09-08T16:34:07.142Z,94462.25
2023-09-08T16:36:33.929Z,94465.38
2023-09-08T16:39:01.952Z,94462.59
2023-09-08T16:41:28.778Z,94467.09
2023-09-08T16:43:55.532Z,94464.41
2023-09-08T16:46:22.461Z,94460.84
2023-09-08T16:48:49.633Z,94462.44
2023-09-08T16:51:16.393Z,94461.44
2023-09-08T16:53:43.143Z,94464.22
2023-09-08T16:56:10.162Z,94463.06
2023-09-08T16:58:37.065Z,94474.25
2023-09-08T17:01:03.818Z,94463.25
2023-09-08T17:03:30.772Z,94474.47
2023-09-08T17:05:57.756Z,94475.16
2023-09-08T17:08:24.499Z,94472.59
2023-09-08T17:10:51.291Z,94475.25
2023-09-08T17:13:18.047Z,94466.75
2023-09-08T17:15:46.059Z,94468.00
2023-09-08T17:18:13.367Z,94466.88
2023-09-08T17:20:40.235Z,94466.41
2023-09-08T17:23:07.422Z,94476.63
2023-09-08T17:25:34.262Z,94471.13
2023-09-08T17:28:02.427Z,94473.50
2023-09-08T17:30:29.234Z,94468.00
2023-09-08T17:32:56.437Z,94476.06
2023-09-08T17:35:23.415Z,94472.66
2023-09-08T17:37:50.206Z,94475.97
2023-09-08T17:40:16.953Z,94473.53
2023-09-08T17:42:43.761Z,94468.13
2023-09-08T17:45:12.416Z,94475.09
2023-09-08T17:47:40.687Z,94475.31
2023-09-08T17:50:07.641Z,94477.25
2023-09-08T17:52:34.419Z,94475.16
2023-09-08T17:55:01.403Z,94480.72
2023-09-08T17:57:28.428Z,94478.06
2023-09-08T17:59:55.765Z,94479.78
2023-09-08T18:02:23.160Z,94489.28
2023-09-08T18:04:52.419Z,94489.34
2023-09-08T18:07:19.327Z,94485.84
2023-09-08T18:09:46.177Z,94489.84
2023-09-08T18:12:13.346Z,94495.22
2023-09-08T18:14:40.448Z,94491.41
2023-09-08T18:17:07.256Z,94500.94
2023-09-08T18:19:34.315Z,94499.78
2023-09-08T18:22:02.444Z,94495.13
2023-09-08T18:24:29.246Z,94491.59
2023-09-08T18:26:56.446Z,94499.84
2023-09-08T18:29:23.396Z,94505.03
2023-09-08T18:31:50.488Z,94507.66
2023-09-08T18:34:17.692Z,94506.66
2023-09-08T18:36:44.484Z,94511.75
2023-09-08T18:39:11.225Z,94512.69
2023-09-08T18:41:38.001Z,94512.19
2023-09-08T18:44:05.942Z,94518.63
2023-09-08T18:46:32.955Z,94511.16
2023-09-08T18:48:59.805Z,94512.88
2023-09-08T18:51:26.821Z,94515.25
2023-09-08T18:53:55.253Z,94520.91
2023-09-08T18:56:22.333Z,94511.72
2023-09-08T18:58:49.280Z,94516.25
2023-09-08T19:01:16.101Z,94520.59
2023-09-08T19:03:42.999Z,94521.72
2023-09-08T19:06:09.881Z,94524.22
2023-09-08T19:08:37.082Z,94522.41
2023-09-08T19:11:03.891Z,94520.47
2023-09-08T19:13:30.865Z,94526.31
2023-09-08T19:15:57.768Z,94525.16
2023-09-08T19:18:25.524Z,94520.78
2023-09-08T19:20:52.700Z,94526.34
2023-09-08T19:23:20.550Z,94524.84
2023-09-08T19:25:47.612Z,94521.53
2023-09-08T19:28:14.762Z,94519.25
2023-09-08T19:30:46.933Z,94522.88
2023-09-08T19:33:14.022Z,94520.22
2023-09-08T19:35:42.209Z,94521.13
2023-09-08T19:38:09.273Z,94520.72
2023-09-08T19:40:36.059Z,94525.88
2023-09-08T19:43:03.140Z,94521.59
2023-09-08T19:45:29.883Z,94527.81
2023-09-08T19:47:56.770Z,94519.31
2023-09-08T19:50:23.699Z,94517.44
2023-09-08T19:52:50.670Z,94522.50
2023-09-08T19:55:17.442Z,94527.44
2023-09-08T19:57:44.440Z,94519.66
2023-09-08T20:00:12.332Z,94526.50
2023-09-08T20:02:39.985Z,94525.00
2023-09-08T20:05:07.929Z,94530.50
2023-09-08T20:07:34.847Z,94521.72
2023-09-08T20:10:02.411Z,94528.06
2023-09-08T20:12:29.425Z,94525.78
2023-09-08T20:14:57.239Z,94525.00
2023-09-08T20:17:24.036Z,94529.38
2023-09-08T20:19:54.576Z,94532.22
2023-09-08T20:22:21.575Z,94527.34
2023-09-08T20:24:48.376Z,94528.84
2023-09-08T20:27:15.837Z,94534.44
2023-09-08T20:29:43.109Z,94528.91
2023-09-08T20:32:10.381Z,94533.22
2023-09-08T20:34:37.225Z,94522.50
2023-09-08T20:37:04.033Z,94526.03
2023-09-08T20:39:30.889Z,94525.03
2023-09-08T20:42:00.787Z,94515.06
2023-09-08T20:44:27.532Z,94523.38
2023-09-08T20:46:54.502Z,94531.13
2023-09-08T20:49:21.635Z,94529.25
2023-09-08T20:51:48.374Z,94524.09
2023-09-08T20:54:15.540Z,94526.94
2023-09-08T20:56:42.293Z,94527.84
2023-09-08T20:59:09.058Z,94533.50
2023-09-08T21:01:35.872Z,94541.06
2023-09-08T21:04:03.004Z,94528.00
2023-09-08T21:06:31.134Z,94530.88
2023-09-08T21:08:57.902Z,94532.72
2023-09-08T21:11:24.819Z,94527.69
2023-09-08T21:13:51.628Z,94529.75
2023-09-08T21:16:19.526Z,94529.19
2023-09-08T21:18:46.456Z,94523.66
2023-09-08T21:21:13.189Z,94524.03
2023-09-08T21:23:47.276Z,94529.41
2023-09-08T21:26:14.061Z,94530.75
2023-09-08T21:28:40.823Z,94529.19
2023-09-08T21:31:07.899Z,94531.19
2023-09-08T21:33:35.677Z,94529.31
2023-09-08T21:36:02.789Z,94533.22
2023-09-08T21:38:29.554Z,94531.28
2023-09-08T21:40:56.354Z,94534.03
2023-09-08T21:43:23.447Z,94531.69
2023-09-08T21:45:50.703Z,94528.78
2023-09-08T21:48:20.828Z,94531.06
2023-09-08T21:50:47.821Z,94524.31
2023-09-08T21:53:14.573Z,94531.31
2023-09-08T21:55:41.292Z,94529.75
2023-09-08T21:58:08.040Z,94529.00
2023-09-08T22:00:35.296Z,94524.59
2023-09-08T22:03:02.622Z,94528.13
2023-09-08T22:05:29.903Z,94528.78
2023-09-08T22:07:57.241Z,94525.47
2023-09-08T22:10:24.037Z,94522.97
2023-09-08T22:12:51.353Z,94527.69
2023-09-08T22:15:19.364Z,94529.22
2023-09-08T22:17:49.673Z,94526.59
2023-09-08T22:20:16.695Z,94522.09
2023-09-08T22:22:44.226Z,94521.72
2023-09-08T22:25:12.000Z,94520.63
2023-09-08T22:27:39.124Z,94520.00
2023-09-08T22:30:06.407Z,94523.25
2023-09-08T22:32:33.812Z,94529.03
2023-09-08T22:35:00.585Z,94530.25
2023-09-08T22:37:27.602Z,94523.41
2023-09-08T22:39:55.416Z,94533.63
2023-09-08T22:42:22.640Z,94531.09
2023-09-08T22:44:49.565Z,94536.38
2023-09-08T22:47:16.763Z,94529.41
2023-09-08T22:50:01.137Z,94531.56
2023-09-08T22:52:28.278Z,94517.56
2023-09-08T22:55:02.553Z,94532.16
2023-09-08T22:57:44.795Z,94526.63
2023-09-08T23:00:12.210Z,94524.28
2023-09-08T23:02:39.301Z,94534.66
2023-09-08T23:05:06.217Z,94540.31
2023-09-08T23:07:33.078Z,94540.72
2023-09-08T23:10:01.473Z,94535.41
2023-09-08T23:12:28.200Z,94534.34
2023-09-08T23:14:55.065Z,94539.09
2023-09-08T23:17:22.189Z,94538.03
2023-09-08T23:19:49.115Z,94547.03
2023-09-08T23:22:15.993Z,94543.56
2023-09-08T23:24:42.945Z,94545.25
2023-09-08T23:27:09.766Z,94544.66
2023-09-08T23:29:36.513Z,94551.34
2023-09-08T23:32:03.874Z,94548.81
2023-09-08T23:34:30.795Z,94543.66
2023-09-08T23:36:58.143Z,94546.97
2023-09-08T23:39:24.955Z,94542.66
2023-09-08T23:41:51.768Z,94542.50
2023-09-08T23:44:19.005Z,94539.97
2023-09-08T23:46:46.034Z,94543.28
2023-09-08T23:49:13.353Z,94546.44
2023-09-08T23:51:40.158Z,94543.97
2023-09-08T23:54:07.040Z,94550.28
2023-09-08T23:56:35.297Z,94545.34
2023-09-08T23:59:02.695Z,94549.88
